Addy, Washington
Current Conditions -  °F | °C
As of 1:53 AM on Monday 26 Jan 2015 (Local Time) from KDEW Reporting Station
Haze Haze  
Wind Chill: 32°   Ceiling: 200
Heat Index: 36°   Visibility: 4mi
Dew Point: 35°   Wind: 5mph
Humidity: 97%   Direction: 350°N
Pressure: 30.15"   Gusts: NA
Location:  48.36°N, 117.84°W
Report Text: KDEW 260953Z AUTO 35004KT 4SM BR OVC002 02/02 A3015 RMK AO2 SLP224 T00220017
Loading
Personal Weather Stations






























Interactive Weather Map New forecast layout! Learn more

10-Day Weather Forecast

Advertisements
Track Severe Weather on mobile